Balfour, ND

9:19 PM CDT on July 29, 2014 (GMT -0500)
Harvey (K5H4) Elev 1608 ft | 47.79 °N, 99.93 °W | Change Station
Active Advisory: Flood Warning

Current weather conditions updated 4 minutes ago

Clear
Clear
66 °F
Feels Like 66 °F
N
5
Wind Variable Wind from NNE

Tomorrow is forecast to be Warmer than today.

Today
High -- | Low -- °F
--% Chance of Precip.
Yesterday
High -- | Low -- °F
Precip. -- in
6:14 AM 9:21 PM
Waxing Crescent, 9% visible
Pressure 30.14 in
Visibility 5.0 miles
Clouds Clear
Dew Point 63 °F
Humidity 88%
Rainfall 0.00 in
Snow Depth Not available.
UV 0 out of 12
Pollen 6.80 out of 12
Air Quality Not available.
Flu Activity Not available.
METAR K5H4 300215Z AUTO 03004KT 5SM BR CLR 19/17 A3014 RMK AO2

More Conditions Fewer Conditions

Pressure 30.14 in
Visibility 5.0 miles
Clouds Clear
Dew Point 63 °F
Humidity 88%
Rainfall 0.00 in
Snow Depth Not available.
UV 0 out of 12
Pollen 6.80 out of 12
Air Quality Not available.
Flu Activity Not available.
METAR K5H4 300215Z AUTO 03004KT 5SM BR CLR 19/17 A3014 RMK AO2

More Conditions Fewer Conditions

10-Day Weather Forecast

Almanac

Astronomy

Jul. 29, 2014 Rise Set
Actual Time 6:14 AM CDT 9:21 PM CDT
Civil Twilight 5:37 AM CDT 9:58 PM CDT
Nautical Twilight 4:49 AM CDT 10:46 PM CDT
Astronomical Twilight 3:49 AM CDT 11:45 PM CDT
Moon 9:08 AM CDT (7/29) 10:16 PM CDT (7/29)
Length of Visible Light 16h 20m
Length of Day
15h 07m
Tomorrow will be 2m 36s shorter.
Waxing Crescent, 9% of the Moon is Illuminated
Today
Waxing Crescent
Aug 3
First Quarter
Aug 10
Full
Aug 17
Last Quarter
Aug 25
New

Today's Extremes

State Highs State Lows

Community

WunderPhotos

Upload Photos

1,738,960 photos uploaded!

Nearby

Snow Depth

Station Depth Elevation
No new snow has been reported.

Earthquake Activity

City Distance Mag. Time & Date
No recent earthquake activity has been reported nearby.
Minimum magnitude displayed is 2.5.

Coastal Water Temperatures

Place Temperature
No Stations Reporting

Nearby Weather Stations

There are no personal weather stations in this area.